createdAt,value
2018-05-08T00:09:12.000Z,1008.285
2018-05-08T00:19:12.000Z,1008.252
2018-05-08T00:29:12.000Z,1008.119
2018-05-08T00:39:12.000Z,1007.934
2018-05-08T00:49:12.000Z,1007.815
2018-05-08T00:59:12.000Z,1007.792
2018-05-08T01:09:12.000Z,1007.712
2018-05-08T01:19:12.000Z,1007.624
2018-05-08T01:29:12.000Z,1007.558
2018-05-08T01:39:12.000Z,1007.498
2018-05-08T01:49:12.000Z,1007.456
2018-05-08T01:59:12.000Z,1007.36
2018-05-08T02:09:12.000Z,1007.311
2018-05-08T02:19:12.000Z,1007.249
2018-05-08T02:29:12.000Z,1007.192
2018-05-08T02:39:12.000Z,1007.191
2018-05-08T02:49:12.000Z,1007.106
2018-05-08T02:59:12.000Z,1007.028
2018-05-08T03:09:12.000Z,1007.05
2018-05-08T03:19:12.000Z,1007.028
2018-05-08T03:29:12.000Z,1006.959
2018-05-08T03:39:12.000Z,1006.998
2018-05-08T03:49:12.000Z,1006.945
2018-05-08T03:59:12.000Z,1006.897
2018-05-08T04:09:12.000Z,1006.855
2018-05-08T04:19:12.000Z,1006.796
2018-05-08T04:29:12.000Z,1006.721
2018-05-08T04:39:12.000Z,1006.652
2018-05-08T04:49:12.000Z,1006.601
2018-05-08T04:59:12.000Z,1006.557
2018-05-08T05:09:13.000Z,1006.44
2018-05-08T05:19:13.000Z,1006.395
2018-05-08T05:29:13.000Z,1006.382
2018-05-08T05:39:13.000Z,1006.386
2018-05-08T05:49:13.000Z,1006.345
2018-05-08T05:59:13.000Z,1006.367
2018-05-08T06:09:13.000Z,1006.232
2018-05-08T06:19:13.000Z,1006.174
2018-05-08T06:29:13.000Z,1006.151
2018-05-08T06:39:13.000Z,1006.054
2018-05-08T06:49:13.000Z,1006.041
2018-05-08T06:59:13.000Z,1006.036
2018-05-08T07:09:13.000Z,1006.052
2018-05-08T07:19:13.000Z,1006.039
2018-05-08T07:29:13.000Z,1006.103
2018-05-08T07:39:13.000Z,1006.156
2018-05-08T07:49:13.000Z,1006.162
2018-05-08T07:59:13.000Z,1006.159
2018-05-08T08:09:13.000Z,1006.129
2018-05-08T08:19:13.000Z,1006.085
2018-05-08T08:29:13.000Z,1005.934
2018-05-08T08:39:13.000Z,1005.797
2018-05-08T08:49:13.000Z,1005.711
2018-05-08T08:59:13.000Z,1005.626
2018-05-08T09:09:13.000Z,1005.532
2018-05-08T09:19:13.000Z,1005.422
2018-05-08T09:29:13.000Z,1005.311
2018-05-08T09:39:13.000Z,1005.081
2018-05-08T09:49:13.000Z,1004.94
2018-05-08T09:59:13.000Z,1004.829
2018-05-08T10:09:13.000Z,1004.709
2018-05-08T10:19:13.000Z,1004.66
2018-05-08T10:29:13.000Z,1004.481
2018-05-08T10:39:13.000Z,1004.337
2018-05-08T10:49:13.000Z,1004.267
2018-05-08T10:59:13.000Z,1004.104
2018-05-08T11:09:13.000Z,1003.924
2018-05-08T11:19:13.000Z,1003.847
2018-05-08T11:29:13.000Z,1003.732
2018-05-08T11:39:13.000Z,1003.673
2018-05-08T11:49:13.000Z,1003.523
2018-05-08T11:59:13.000Z,1003.406
2018-05-08T12:09:13.000Z,1003.262
2018-05-08T12:19:13.000Z,1003.199
2018-05-08T12:29:13.000Z,1003.122
2018-05-08T12:39:13.000Z,1002.923
2018-05-08T12:49:13.000Z,1002.916
2018-05-08T12:59:13.000Z,1002.726
2018-05-08T13:19:13.000Z,1002.561
2018-05-08T13:29:14.000Z,1002.406
2018-05-08T13:39:14.000Z,1002.261
2018-05-08T13:49:14.000Z,1002.249
2018-05-08T13:59:14.000Z,1002.16
2018-05-08T14:09:14.000Z,1002.143
2018-05-08T14:19:14.000Z,1001.988
2018-05-08T14:29:14.000Z,1002.008
2018-05-08T14:39:14.000Z,1001.853
2018-05-08T14:49:14.000Z,1001.765
2018-05-08T14:59:14.000Z,1001.694
2018-05-08T15:09:14.000Z,1001.605
2018-05-08T15:19:14.000Z,1001.53
2018-05-08T15:29:14.000Z,1001.425
2018-05-08T15:39:14.000Z,1001.396
2018-05-08T15:49:14.000Z,1001.286
2018-05-08T15:59:14.000Z,1001.221
2018-05-08T16:09:14.000Z,1001.097
2018-05-08T16:19:14.000Z,1001.034
2018-05-08T16:29:17.000Z,1001.01
2018-05-08T16:39:14.000Z,1001.012
2018-05-08T16:49:14.000Z,1001.015
2018-05-08T16:59:14.000Z,1001.013
2018-05-08T17:19:14.000Z,1000.963
2018-05-08T17:29:14.000Z,1001.025
2018-05-08T17:39:14.000Z,1000.997
2018-05-08T17:49:14.000Z,1000.97
2018-05-08T18:09:14.000Z,1000.986
2018-05-08T18:19:14.000Z,1000.992
2018-05-08T18:29:14.000Z,1001.008
2018-05-08T18:39:14.000Z,1000.984
2018-05-08T18:49:14.000Z,1001.001
2018-05-08T18:59:16.000Z,1001.056
2018-05-08T19:09:14.000Z,1001.102
2018-05-08T19:19:14.000Z,1001.109
2018-05-08T19:29:14.000Z,1001.137
2018-05-08T19:39:14.000Z,1001.186
2018-05-08T19:49:14.000Z,1001.263
2018-05-08T19:59:14.000Z,1001.3
2018-05-08T20:09:14.000Z,1001.253
2018-05-08T20:19:14.000Z,1001.312
2018-05-08T20:39:14.000Z,1001.295
2018-05-08T20:49:14.000Z,1001.3
2018-05-08T20:59:14.000Z,1001.279
2018-05-08T21:09:14.000Z,1001.316
2018-05-08T21:19:15.000Z,1001.392
2018-05-08T21:29:15.000Z,1001.432
2018-05-08T21:39:15.000Z,1001.382
2018-05-08T21:49:15.000Z,1001.381
2018-05-08T21:59:15.000Z,1001.357
2018-05-08T22:09:15.000Z,1001.424
2018-05-08T22:19:15.000Z,1001.416
2018-05-08T22:29:15.000Z,1001.36
2018-05-08T22:39:15.000Z,1001.38
2018-05-08T22:49:15.000Z,1001.321
2018-05-08T22:59:15.000Z,1001.339
2018-05-08T23:09:15.000Z,1001.312
2018-05-08T23:19:15.000Z,1001.234
2018-05-08T23:29:15.000Z,1001.135
2018-05-08T23:39:15.000Z,1001.069
2018-05-08T23:49:15.000Z,1000.986
2018-05-08T23:59:15.000Z,1000.983
